Chpt de FR Long Dist SO St PEE 280810 - H

Date : 28/08/2010

Place Nom Licence Catégorie Club Temps Points
1 HELIOT Claude 2349 H70 2604AR 0:42:53 4379
2 DAYRIES Michel 10888 H70 4012NA 0:43:48 4287
3 KENANE Abdelkader 1448 H70 5501GE 0:44:37 4209
4 CROCHET Gerard 2817 H70 1705NA 0:46:29 4040
5 FRANTZ Francoise 6886 D60 2904BR 0:46:52 4007
6 DIEUDONNE Madeleine 1380 D60 7808IF 0:48:56 3837
7 EUZEN J-Paul 16403 H70 6911AR 0:49:01 3831
8 PIGER Albert 116 H70 4504CE 0:49:57 3759
9 OUDIN M-Reine 7574 D60 6804GE 0:50:38 3708
10 CONIEL Anne 14884 D40 5604BR 0:50:51 3693
11 ROBERT Francoise 6491 D60 6913AR 0:52:40 3565
12 DOMENICI J-Claude 1052 H70 1705NA 0:52:40 3565
13 LEFOUEST Joseph 1000 H70 2904BR 0:53:11 3531
14 DEVILLE Nelly 2401 D60 5402GE 0:54:33 3442
15 GROC Claire 6113 D50 9502IF 0:54:44 3431
16 PEETERS Simone 295 D70 7703IF 0:55:13 3401
17 CHAUVINEAU Christine 15228 D40 7807IF 0:56:20 3333
18 ROBERT Martine 1087 D60 7004BF 0:57:10 3285
19 POGU Paulette 4671 D60 5402GE 0:57:39 3257
20 BERNARDOT Blandine 23248 D35 6911AR 0:58:33 3207
21 POULAIN Odile 1948 D45 5908HF 0:59:31 3155
22 THIEBAULT Monique 5033 D60 3319NA 1:01:56 3032
23 NATALI Annie 1106 D60 8105OC 1:02:02 3027
24 SIMONET Marie 931 D60 7707IF 1:03:21 2964
25 JEANPIERRE M-Therese 3302 D65 8809GE 1:03:39 2950
26 DELANNOY Aurore 21271 D35 6208HF 1:03:49 2942
27 FERRAGE Rene 1363 H70 9105IF 1:05:17 2876
28 THIEBAULD Georges 4389 H70 8809GE 1:08:32 2740
29 LEMBEZAT M-Christine 16039 D35 6408NA 1:09:39 2696
30 BOUSQUET Michel 1438 H70 9504IF 1:11:56 2610
31 BAUDOIN Annie 16634 D60 0615PZ 1:13:01 2572
32 VOGT Christiane 2557 D60 6709GE 1:13:18 2562
33 GROSJEAN A-Marie 12059 D70 6913AR 1:14:22 2525
34 CABON Monique 96 D60 2904BR 1:15:17 2494
35 PIGER Ghislaine 117 D70 4504CE 1:15:22 2491
36 ABISSE Gisele 701 D65 2508BF 1:15:43 2480
37 DODIN Genevieve 4392 D60 8809GE 1:16:26 2457
38 JEANNERET Christelle 23315 D40 7109BF 1:16:27 2456
39 GROSJEAN Pierre 12354 H70 6913AR 1:18:07 2404
40 KIEFFER Mireille 2680 D60 2101BF 1:18:17 2399
41 RICHARD Nicole 14245 D60 0207HF 1:18:29 2393
42 BASTIEN-FATH Nicole 8954 D60 5413GE 1:18:45 2384
43 COCAUT Yvonne 5497 D60 5604BR 1:21:52 2294
44 CHAVERNAC Bruno 1416 H70 8315PZ 1:22:13 2284
45 POUPIER Claudine 13991 D60 7203PL 1:23:26 2251
46 ROLLET Marie-Madeleine 2413 D60 5415GE 1:24:09 2231
47 RESSOUCHE Veronique 13041 D45 3810AR 1:25:06 2207
48 DAVID Simone 10804 D70 4705NA 1:25:08 2206
49 GEOFFROY Nicole 6443 D60 3408OC 1:25:42 2191
50 SXAY Michelle 2115 D60 3705CE 1:25:45 2190
51 BEGUINOT Jacques 1443 H70 5501GE 1:26:35 2169
52 CHARDOT Ulrike 22314 D45 7807IF 1:27:25 2148
53 DUVOUX France 6826 D60 4504CE 1:27:33 2145
54 LAUNEY Noella 11368 D70 7203PL 1:29:15 2104
55 LUDEWIG-JAMES Carol 15894 D70 5907HF 1:33:04 2018
56 LAURENT Therese 725 D70 2508BF 1:33:11 2015
57 FINO Béatrice 1674 D40 0103AR 1:35:31 1966
58 LEFOUEST M-Therese 1001 D70 2904BR 1:40:39 1866
59 THIEBAULT M-Paule 4490 D60 6804GE 1:43:59 1806
60 SIMON Denise 10010 D65 3308NA 1:56:54 1606
61 BOUSQUET Huguette 1437 D70 9504IF 2:11:26 1429
62 BREMAUD Veronique 5804 D50 1202OC 2:15:39 1384
63 CHAVERNAC Chantal 1417 D70 8315PZ 2:48:09 1117
64 VERT Genevieve 3918 D60 8315PZ 3:36:13 868
INDEAUX Catherine 10394 D35 6913AR pm 0
JOLY Francoise 2487 D65 8807GE pm 0
ROCHE Bernadette 18401 D45 2606AR pm 0
BLANCHARD Muriel 20668 D40 3308NA pm 0
BOULESTREAU Francoise 11308 D45 2904BR pm 0
ALLANCON Claudine 14632 D60 2906BR pm 0
MAYE-LASSERRE Marielle 22864 D40 6408NA pm 0
COURTOIS Agnès 23123 D45 8807GE pm 0
MOULIERE M-Bernadette 2888 D65 0207HF pm 0
JAFFRY Valerie 9393 D40 5604BR pm 0